Pagrindinis puslapis
METAR-TAF:

METAR-TAF

Oro uostai :

Joensū, Suomija

platuma: 62-40N, ilguma: 029-38E, Aukštis: 119 m

Dabartinis oras

Ataskaita buvo paskelbta 30 minutes, ne 12:50 UTC
Vėjas 4 kt iš Vakarų/Pietvakarių
Temperatūra -1°C
Drėgmė 100%
Slėgis 995 hPa
Matomumas: 2700 m
Apsiniaukę ne aukštis 200 ft
(silpnas) ledijantis, lietus, sniegas

METAR: EFJO 161250Z AUTO 25004KT 2700 -FZRASN OVC002 M01/M01 Q0995

Laikas: 15:20 (13:20 UTC)

Prognozė

Ataskaita buvo paskelbta 1 valandą ir 51 minutes, ne 11:29 UTC
Prognozė galioja nuo 16 metu 12 UTC su 16 metu 21 UTC
Vėjas 4 kt iš Vakarų/Pietvakarių
Matomumas: 8000 m
Apsiniaukę ne aukštis 200 ft
sniegas
Laikinai
nuo 16 metu 12 UTC su 16 metu 21 UTC
Matomumas: 4000 m
Su prošvaistėmis ne aukštis 500 ft
sniegas, lietus
Tikimybė 30%
nuo 16 metu 12 UTC su 16 metu 15 UTC
(silpnas) ledijantis, dulksna

TAF: EFJO 161129Z 1612/1621 25004KT 8000 -SN OVC002 TEMPO 1612/1621 4000 -SNRA BKN005 PROB30 1612/1615 -FZDZ

Orai ataskaitas ir orų prognozės (METAR, TAF).

turimą stotys yra geltonos ir raudonos taškus žemėlapyje.

Perkelti pele per norėdami pamatyti stoties vardą.

Tada spustelėkite, norėdami matyti oro stebėjimo ir prognozės.

Norėdami pakeisti žemėlapį: spustelėkite ant žalios mygtukų su juodo kryžiaus žemyn,; žalią mygtuką su brūkšneliu, jei norite nutolinti; arba žalių rodyklių gretimoms žemėlapius.


METAR-TAF: